createdAt,value
2019-01-14T00:00:06.426Z,3.91
2019-01-14T00:02:38.408Z,3.88
2019-01-14T00:05:10.443Z,3.85
2019-01-14T00:07:42.270Z,3.86
2019-01-14T00:10:14.155Z,3.76
2019-01-14T00:12:45.901Z,3.75
2019-01-14T00:15:17.817Z,3.68
2019-01-14T00:17:49.962Z,3.57
2019-01-14T00:20:21.847Z,3.56
2019-01-14T00:22:53.602Z,3.51
2019-01-14T00:25:25.439Z,3.43
2019-01-14T00:27:57.254Z,3.34
2019-01-14T00:30:29.433Z,3.42
2019-01-14T00:33:01.403Z,3.32
2019-01-14T00:35:33.305Z,3.35
2019-01-14T00:38:05.219Z,3.21
2019-01-14T00:40:37.355Z,3.11
2019-01-14T00:43:10.239Z,3.21
2019-01-14T00:45:42.052Z,3.18
2019-01-14T00:48:13.973Z,3.19
2019-01-14T00:50:45.710Z,3.23
2019-01-14T00:53:17.539Z,3.13
2019-01-14T00:55:49.357Z,3.13
2019-01-14T00:58:21.138Z,3.13
2019-01-14T01:00:52.947Z,3.10
2019-01-14T01:03:25.031Z,3.11
2019-01-14T01:05:56.856Z,3.11
2019-01-14T01:08:28.688Z,3.11
2019-01-14T01:11:00.590Z,3.14
2019-01-14T01:13:32.407Z,3.04
2019-01-14T01:16:04.282Z,3.15
2019-01-14T01:18:36.192Z,3.12
2019-01-14T01:21:08.015Z,2.94
2019-01-14T01:23:40.050Z,3.10
2019-01-14T01:26:11.945Z,3.09
2019-01-14T01:28:43.835Z,3.11
2019-01-14T01:31:15.725Z,3.11
2019-01-14T01:33:47.549Z,3.03
2019-01-14T01:36:19.368Z,3.00
2019-01-14T01:38:51.209Z,3.08
2019-01-14T01:41:23.134Z,3.07
2019-01-14T01:43:54.879Z,2.99
2019-01-14T01:46:26.677Z,3.10
2019-01-14T01:48:58.501Z,3.12
2019-01-14T01:51:30.266Z,3.11
2019-01-14T01:54:02.367Z,2.96
2019-01-14T01:56:34.288Z,3.09
2019-01-14T01:59:06.193Z,3.01
2019-01-14T02:01:38.275Z,3.06
2019-01-14T02:04:10.026Z,3.10
2019-01-14T02:06:41.843Z,3.06
2019-01-14T02:09:13.671Z,3.05
2019-01-14T02:11:45.589Z,3.07
2019-01-14T02:14:17.630Z,3.05
2019-01-14T02:16:49.321Z,3.05
2019-01-14T02:19:21.169Z,3.00
2019-01-14T02:21:53.253Z,3.05
2019-01-14T02:24:25.019Z,3.06
2019-01-14T02:26:56.822Z,3.03
2019-01-14T02:29:28.647Z,3.00
2019-01-14T02:32:00.729Z,3.04
2019-01-14T02:34:32.486Z,3.05
2019-01-14T02:37:04.372Z,3.05
2019-01-14T02:39:36.451Z,3.14
2019-01-14T02:42:09.262Z,3.09
2019-01-14T02:44:41.014Z,3.13
2019-01-14T02:47:12.745Z,3.11
2019-01-14T02:49:44.687Z,3.14
2019-01-14T02:52:16.565Z,3.18
2019-01-14T02:54:48.417Z,3.10
2019-01-14T02:57:20.231Z,3.14
2019-01-14T02:59:52.052Z,3.17
2019-01-14T03:02:23.947Z,3.18
2019-01-14T03:04:55.774Z,3.18
2019-01-14T03:07:27.599Z,3.15
2019-01-14T03:09:59.491Z,3.14
2019-01-14T03:12:31.251Z,3.19
2019-01-14T03:15:03.061Z,3.18
2019-01-14T03:17:34.990Z,3.18
2019-01-14T03:20:09.640Z,3.19
2019-01-14T03:22:41.865Z,3.18
2019-01-14T03:25:14.912Z,3.17
2019-01-14T03:27:46.873Z,3.15
2019-01-14T03:30:20.240Z,3.15
2019-01-14T03:32:52.127Z,3.19
2019-01-14T03:35:23.946Z,3.14
2019-01-14T03:37:55.779Z,3.14
2019-01-14T03:40:27.671Z,3.12
2019-01-14T03:42:59.484Z,3.17
2019-01-14T03:45:31.408Z,3.16
2019-01-14T03:48:03.570Z,3.15
2019-01-14T03:50:35.471Z,3.14
2019-01-14T03:53:07.272Z,3.10
2019-01-14T03:55:39.181Z,3.12
2019-01-14T03:58:11.001Z,3.14
2019-01-14T04:00:42.894Z,3.12
2019-01-14T04:03:14.623Z,3.06
2019-01-14T04:05:46.670Z,3.12
2019-01-14T04:08:18.557Z,3.09
2019-01-14T04:10:50.618Z,3.03
2019-01-14T04:13:22.518Z,3.08
2019-01-14T04:15:54.338Z,3.06
2019-01-14T04:18:26.162Z,3.02
2019-01-14T04:20:58.330Z,3.04
2019-01-14T04:23:30.515Z,3.08
2019-01-14T04:26:02.403Z,3.06
2019-01-14T04:28:34.852Z,3.07
2019-01-14T04:31:06.674Z,3.02
2019-01-14T04:33:38.571Z,3.08
2019-01-14T04:36:10.534Z,3.08
2019-01-14T04:38:42.737Z,3.06
2019-01-14T04:41:14.778Z,3.01
2019-01-14T04:43:46.579Z,2.99
2019-01-14T04:46:18.396Z,2.97
2019-01-14T04:48:50.377Z,2.91
2019-01-14T04:51:22.380Z,2.85
2019-01-14T04:53:54.198Z,2.91
2019-01-14T04:56:26.274Z,2.87
2019-01-14T04:58:58.390Z,2.88
2019-01-14T05:01:30.791Z,2.90
2019-01-14T05:04:02.808Z,2.86
2019-01-14T05:06:34.780Z,2.80
2019-01-14T05:09:09.403Z,2.84
2019-01-14T05:11:41.405Z,2.89
2019-01-14T05:14:13.286Z,2.87
2019-01-14T05:16:45.223Z,2.87
2019-01-14T05:19:16.963Z,2.88
2019-01-14T05:21:48.846Z,2.84
2019-01-14T05:24:20.578Z,2.80
2019-01-14T05:26:52.298Z,2.84
2019-01-14T05:29:24.138Z,2.87
2019-01-14T05:31:56.562Z,2.85
2019-01-14T05:34:28.438Z,2.85
2019-01-14T05:37:00.221Z,2.79
2019-01-14T05:39:32.055Z,2.71
2019-01-14T05:42:03.925Z,2.81
2019-01-14T05:44:36.677Z,2.81
2019-01-14T05:47:09.659Z,2.83
2019-01-14T05:49:41.656Z,2.81
2019-01-14T05:52:13.541Z,2.80
2019-01-14T05:54:45.352Z,2.78
2019-01-14T05:57:17.101Z,2.76
2019-01-14T05:59:49.130Z,2.73
2019-01-14T06:02:21.025Z,2.77
2019-01-14T06:04:52.833Z,2.77
2019-01-14T06:07:24.637Z,2.69
2019-01-14T06:09:56.365Z,2.65
2019-01-14T06:12:35.572Z,2.76
2019-01-14T06:15:08.540Z,2.74
2019-01-14T06:17:40.413Z,2.72
2019-01-14T06:20:14.554Z,2.72
2019-01-14T06:22:46.439Z,2.70
2019-01-14T06:25:18.682Z,2.65
2019-01-14T06:27:50.535Z,2.69
2019-01-14T06:30:25.474Z,2.66
2019-01-14T06:32:57.299Z,2.66
2019-01-14T06:35:29.233Z,2.59
2019-01-14T06:38:01.172Z,2.52
2019-01-14T06:40:33.037Z,2.44
2019-01-14T06:43:04.924Z,2.41
2019-01-14T06:45:36.902Z,2.40
2019-01-14T06:48:10.011Z,2.38
2019-01-14T06:50:41.854Z,2.43
2019-01-14T06:53:13.716Z,2.36
2019-01-14T06:55:45.730Z,2.37
2019-01-14T06:58:17.565Z,2.41
2019-01-14T07:00:49.301Z,2.32
2019-01-14T07:03:21.188Z,2.29
2019-01-14T07:05:53.123Z,2.35
2019-01-14T07:08:24.859Z,2.28
2019-01-14T07:10:57.009Z,2.20
2019-01-14T07:13:28.805Z,2.20
2019-01-14T07:16:00.517Z,2.15
2019-01-14T07:18:32.254Z,2.25
2019-01-14T07:21:04.048Z,2.21
2019-01-14T07:23:35.979Z,2.23
2019-01-14T07:26:07.973Z,2.24
2019-01-14T07:28:39.948Z,2.26
2019-01-14T07:31:11.895Z,2.28
2019-01-14T07:33:43.906Z,2.28
2019-01-14T07:36:15.940Z,2.22
2019-01-14T07:38:48.003Z,2.21
2019-01-14T07:41:20.000Z,2.26
2019-01-14T07:43:52.226Z,2.26
2019-01-14T07:46:25.327Z,2.25
2019-01-14T07:48:57.091Z,2.22
2019-01-14T07:51:28.935Z,2.19
2019-01-14T07:54:00.687Z,2.18
2019-01-14T07:56:32.776Z,2.19
2019-01-14T07:59:04.723Z,2.20
2019-01-14T08:01:36.516Z,2.24
2019-01-14T08:04:09.475Z,2.20
2019-01-14T08:06:41.274Z,2.25
2019-01-14T08:09:13.082Z,2.24
2019-01-14T08:11:45.147Z,2.22
2019-01-14T08:14:17.024Z,2.21
2019-01-14T08:16:48.986Z,2.22
2019-01-14T08:19:20.710Z,2.18
2019-01-14T08:21:52.575Z,2.11
2019-01-14T08:24:24.375Z,2.12
2019-01-14T08:26:56.179Z,2.04
2019-01-14T08:29:27.979Z,2.03
2019-01-14T08:31:59.838Z,1.99
2019-01-14T08:34:31.636Z,1.93
2019-01-14T08:37:03.568Z,1.92
2019-01-14T08:39:35.373Z,1.88
2019-01-14T08:42:08.113Z,1.92
2019-01-14T08:44:41.949Z,1.92
2019-01-14T08:47:13.699Z,1.74
2019-01-14T08:49:45.865Z,1.84
2019-01-14T08:52:17.665Z,1.88
2019-01-14T08:54:49.566Z,1.83
2019-01-14T08:57:21.790Z,1.77
2019-01-14T08:59:53.593Z,1.72
2019-01-14T09:02:25.470Z,1.75
2019-01-14T09:04:57.296Z,1.64
2019-01-14T09:07:29.025Z,1.71
2019-01-14T09:10:00.764Z,1.70
2019-01-14T09:12:33.627Z,1.76
2019-01-14T09:15:07.624Z,1.70
2019-01-14T09:17:39.566Z,1.71
2019-01-14T09:20:15.708Z,1.72
2019-01-14T09:22:47.706Z,1.79
2019-01-14T09:25:19.776Z,1.72
2019-01-14T09:27:52.808Z,1.70
2019-01-14T09:30:26.397Z,1.85
2019-01-14T09:32:58.217Z,1.91
2019-01-14T09:35:30.270Z,1.84
2019-01-14T09:38:02.096Z,1.94
2019-01-14T09:40:34.323Z,1.89
2019-01-14T09:43:06.197Z,1.85
2019-01-14T09:45:38.093Z,1.98
2019-01-14T09:48:10.194Z,2.04
2019-01-14T09:50:41.930Z,1.94
2019-01-14T09:53:13.739Z,1.95
2019-01-14T09:55:45.722Z,1.88
2019-01-14T09:58:17.452Z,1.89
2019-01-14T10:00:49.337Z,1.79
2019-01-14T10:03:21.141Z,1.81
2019-01-14T10:05:59.072Z,1.75
2019-01-14T10:08:30.986Z,1.74
2019-01-14T10:11:03.061Z,1.80
2019-01-14T10:13:35.054Z,1.74
2019-01-14T10:16:07.050Z,1.81
2019-01-14T10:18:38.859Z,1.79
2019-01-14T10:21:10.904Z,1.73
2019-01-14T10:23:42.787Z,1.49
2019-01-14T10:26:16.179Z,1.44
2019-01-14T10:28:48.084Z,1.40
2019-01-14T10:31:20.165Z,1.48
2019-01-14T10:33:52.018Z,1.51
2019-01-14T10:36:23.755Z,1.30
2019-01-14T10:38:55.481Z,1.22
2019-01-14T10:41:27.229Z,1.15
2019-01-14T10:43:59.037Z,0.97
2019-01-14T10:46:30.917Z,0.98
2019-01-14T10:49:06.604Z,1.04
2019-01-14T10:51:36.314Z,0.96
2019-01-14T10:54:08.219Z,0.68
2019-01-14T10:56:44.100Z,0.65
2019-01-14T10:59:14.459Z,0.76
2019-01-14T11:01:46.277Z,0.87
2019-01-14T11:04:18.079Z,0.82
2019-01-14T11:06:50.224Z,0.73
2019-01-14T11:09:22.272Z,0.65
2019-01-14T11:11:54.171Z,0.64
2019-01-14T11:14:26.964Z,0.46
2019-01-14T11:16:58.784Z,0.56
2019-01-14T11:19:30.715Z,0.51
2019-01-14T11:22:02.523Z,0.51
2019-01-14T11:24:52.841Z,0.52
2019-01-14T11:27:24.707Z,0.44
2019-01-14T11:29:56.520Z,0.39
2019-01-14T11:32:28.391Z,0.34
2019-01-14T11:35:02.948Z,0.30
2019-01-14T11:37:34.797Z,0.25
2019-01-14T11:40:16.189Z,0.27
2019-01-14T11:42:49.192Z,0.23
2019-01-14T11:45:21.193Z,-0.05
2019-01-14T11:47:53.211Z,0.20
2019-01-14T11:50:25.218Z,0.09
2019-01-14T11:52:57.260Z,0.05
2019-01-14T11:55:29.283Z,0.09
2019-01-14T11:58:01.258Z,0.10
2019-01-14T12:00:36.803Z,0.16
2019-01-14T12:03:08.530Z,0.28
2019-01-14T12:05:40.662Z,0.12
2019-01-14T12:08:12.563Z,0.04
2019-01-14T12:10:44.536Z,0.24
2019-01-14T12:13:16.422Z,0.27
2019-01-14T12:15:48.231Z,0.31
2019-01-14T12:18:20.041Z,0.25
2019-01-14T12:20:51.836Z,0.31
2019-01-14T12:23:23.724Z,0.18
2019-01-14T12:25:55.463Z,0.54
2019-01-14T12:28:27.278Z,0.46
2019-01-14T12:30:59.158Z,0.45
2019-01-14T12:33:30.980Z,0.51
2019-01-14T12:36:02.772Z,0.66
2019-01-14T12:38:34.532Z,0.60
2019-01-14T12:41:06.403Z,0.48
2019-01-14T12:43:38.152Z,0.56
2019-01-14T12:46:10.402Z,0.52
2019-01-14T12:48:42.222Z,0.46
2019-01-14T12:51:14.030Z,0.42
2019-01-14T12:53:45.782Z,0.59
2019-01-14T12:56:17.548Z,0.57
2019-01-14T12:58:49.296Z,0.55
2019-01-14T13:01:21.121Z,0.62
2019-01-14T13:03:52.875Z,0.44
2019-01-14T13:06:24.597Z,0.57
2019-01-14T13:08:56.419Z,0.54
2019-01-14T13:11:28.206Z,0.55
2019-01-14T13:14:00.022Z,0.56
2019-01-14T13:16:31.841Z,0.57
2019-01-14T13:19:03.659Z,0.40
2019-01-14T13:21:35.728Z,0.56
2019-01-14T13:24:07.566Z,0.61
2019-01-14T13:26:39.293Z,0.62
2019-01-14T13:29:15.164Z,0.67
2019-01-14T13:31:44.652Z,0.74
2019-01-14T13:34:16.487Z,0.78
2019-01-14T13:36:48.288Z,0.72
2019-01-14T13:39:20.025Z,0.70
2019-01-14T13:41:51.896Z,0.79
2019-01-14T13:44:23.797Z,0.84
2019-01-14T13:46:55.791Z,0.85
2019-01-14T13:49:27.706Z,0.77
2019-01-14T13:51:59.507Z,0.85
2019-01-14T13:54:31.659Z,0.88
2019-01-14T13:57:03.672Z,0.82
2019-01-14T13:59:35.838Z,0.78
2019-01-14T14:02:07.730Z,0.82
2019-01-14T14:04:39.554Z,0.88
2019-01-14T14:07:11.690Z,0.79
2019-01-14T14:09:43.527Z,0.91
2019-01-14T14:12:15.421Z,0.96
2019-01-14T14:14:47.249Z,1.00
2019-01-14T14:17:19.081Z,1.03
2019-01-14T14:19:50.920Z,1.09
2019-01-14T14:22:22.665Z,1.07
2019-01-14T14:24:55.467Z,1.14
2019-01-14T14:27:27.279Z,1.05
2019-01-14T14:29:59.293Z,1.09
2019-01-14T14:32:31.344Z,0.98
2019-01-14T14:35:03.421Z,0.74
2019-01-14T14:37:35.262Z,0.63
2019-01-14T14:40:08.898Z,0.75
2019-01-14T14:42:40.783Z,0.77
2019-01-14T14:45:12.970Z,0.66
2019-01-14T14:47:44.908Z,0.63
2019-01-14T14:50:17.613Z,0.52
2019-01-14T14:52:49.939Z,0.38
2019-01-14T14:55:21.777Z,0.53
2019-01-14T14:57:53.729Z,0.44
2019-01-14T15:00:26.711Z,0.32
2019-01-14T15:02:58.756Z,0.89
2019-01-14T15:05:30.653Z,1.61
2019-01-14T15:08:02.571Z,2.05
2019-01-14T15:10:34.393Z,2.26
2019-01-14T15:13:06.336Z,2.46
2019-01-14T15:15:38.461Z,1.63
2019-01-14T15:18:11.258Z,1.26
2019-01-14T15:20:43.160Z,0.83
2019-01-14T15:23:14.981Z,0.83
2019-01-14T15:25:47.095Z,0.79
2019-01-14T15:28:18.923Z,0.86
2019-01-14T15:30:50.686Z,0.86
2019-01-14T15:33:22.561Z,0.75
2019-01-14T15:35:54.408Z,0.60
2019-01-14T15:38:26.301Z,0.59
2019-01-14T15:40:58.148Z,0.70
2019-01-14T15:43:29.977Z,0.84
2019-01-14T15:46:01.922Z,0.90
2019-01-14T15:48:33.767Z,0.84
2019-01-14T15:51:05.681Z,0.99
2019-01-14T15:53:37.437Z,0.80
2019-01-14T15:56:09.889Z,0.98
2019-01-14T15:58:41.798Z,1.09
2019-01-14T16:01:13.645Z,1.00
2019-01-14T16:03:45.466Z,0.91
2019-01-14T16:06:17.279Z,0.91
2019-01-14T16:08:49.267Z,0.91
2019-01-14T16:11:21.678Z,0.87
2019-01-14T16:13:53.491Z,0.93
2019-01-14T16:16:25.743Z,0.99
2019-01-14T16:18:57.938Z,0.98
2019-01-14T16:21:29.760Z,0.97
2019-01-14T16:24:01.709Z,1.01
2019-01-14T16:26:33.582Z,1.02
2019-01-14T16:29:05.418Z,0.88
2019-01-14T16:31:37.185Z,1.00
2019-01-14T16:34:09.341Z,0.97
2019-01-14T16:36:41.251Z,1.04
2019-01-14T16:39:13.055Z,0.84
2019-01-14T16:41:44.892Z,0.97
2019-01-14T16:44:16.700Z,0.97
2019-01-14T16:46:48.588Z,0.98
2019-01-14T16:49:20.481Z,0.92
2019-01-14T16:51:52.639Z,0.97
2019-01-14T16:54:24.387Z,0.98
2019-01-14T16:56:56.145Z,0.86
2019-01-14T16:59:27.963Z,0.92
2019-01-14T17:02:00.033Z,0.92
2019-01-14T17:04:31.858Z,0.95
2019-01-14T17:07:03.962Z,0.88
2019-01-14T17:09:35.832Z,0.88
2019-01-14T17:12:08.104Z,0.79
2019-01-14T17:14:39.938Z,0.70
2019-01-14T17:17:11.771Z,0.72
2019-01-14T17:19:43.575Z,0.80
2019-01-14T17:22:15.526Z,0.82
2019-01-14T17:24:47.252Z,0.77
2019-01-14T17:27:19.326Z,0.83
2019-01-14T17:29:51.183Z,0.79
2019-01-14T17:32:23.087Z,0.71
2019-01-14T17:34:54.900Z,0.79
2019-01-14T17:37:26.649Z,0.78
2019-01-14T17:39:58.388Z,0.75
2019-01-14T17:42:30.356Z,0.81
2019-01-14T17:45:02.097Z,0.73
2019-01-14T17:47:33.925Z,0.77
2019-01-14T17:50:08.561Z,0.78
2019-01-14T17:52:40.382Z,0.66
2019-01-14T17:55:12.276Z,0.67
2019-01-14T17:57:44.189Z,0.72
2019-01-14T18:00:23.095Z,0.71
2019-01-14T18:02:55.065Z,0.76
2019-01-14T18:05:26.967Z,0.73
2019-01-14T18:07:58.792Z,0.76
2019-01-14T18:10:30.562Z,0.72
2019-01-14T18:13:02.370Z,0.72
2019-01-14T18:15:34.280Z,0.55
2019-01-14T18:18:06.206Z,0.69
2019-01-14T18:20:37.932Z,0.61
2019-01-14T18:23:09.748Z,0.84
2019-01-14T18:25:41.497Z,0.84
2019-01-14T18:28:13.376Z,0.70
2019-01-14T18:30:45.241Z,0.79
2019-01-14T18:33:16.995Z,0.79
2019-01-14T18:35:48.843Z,0.76
2019-01-14T18:38:20.628Z,0.78
2019-01-14T18:40:52.644Z,0.75
2019-01-14T18:43:25.359Z,0.73
2019-01-14T18:45:57.200Z,0.77
2019-01-14T18:48:29.031Z,0.69
2019-01-14T18:51:00.855Z,0.76
2019-01-14T18:53:32.617Z,0.73
2019-01-14T18:56:04.527Z,0.75
2019-01-14T18:58:36.275Z,0.73
2019-01-14T19:01:08.075Z,0.70
2019-01-14T19:03:40.048Z,0.70
2019-01-14T19:06:11.768Z,0.73
2019-01-14T19:08:43.699Z,0.68
2019-01-14T19:11:15.502Z,0.69
2019-01-14T19:13:47.258Z,0.70
2019-01-14T19:16:19.065Z,0.57
2019-01-14T19:18:51.430Z,0.69
2019-01-14T19:21:23.428Z,0.54
2019-01-14T19:23:55.156Z,0.66
2019-01-14T19:26:27.047Z,0.63
2019-01-14T19:28:58.809Z,0.61
2019-01-14T19:31:30.705Z,0.60
2019-01-14T19:34:02.693Z,0.56
2019-01-14T19:36:34.724Z,0.58
2019-01-14T19:39:09.421Z,0.45
2019-01-14T19:41:41.514Z,0.51
2019-01-14T19:44:13.339Z,0.61
2019-01-14T19:46:45.074Z,0.54
2019-01-14T19:49:17.705Z,0.65
2019-01-14T19:51:49.733Z,0.68
2019-01-14T19:54:21.635Z,0.57
2019-01-14T19:56:53.378Z,0.60
2019-01-14T19:59:25.266Z,0.54
2019-01-14T20:01:57.084Z,0.59
2019-01-14T20:04:29.158Z,0.61
2019-01-14T20:07:00.905Z,0.55
2019-01-14T20:09:32.801Z,0.55
2019-01-14T20:12:04.685Z,0.55
2019-01-14T20:14:36.449Z,0.53
2019-01-14T20:17:08.445Z,0.52
2019-01-14T20:19:40.201Z,0.48
2019-01-14T20:22:12.119Z,0.37
2019-01-14T20:24:43.957Z,0.45
2019-01-14T20:27:15.793Z,0.47
2019-01-14T20:29:47.626Z,0.39
2019-01-14T20:32:19.468Z,0.35
2019-01-14T20:34:51.289Z,0.36
2019-01-14T20:37:23.019Z,0.35
2019-01-14T20:39:54.772Z,0.32
2019-01-14T20:42:26.542Z,0.28
2019-01-14T20:44:58.453Z,0.28
2019-01-14T20:47:30.446Z,0.24
2019-01-14T20:50:02.599Z,0.21
2019-01-14T20:52:37.026Z,0.21
2019-01-14T20:55:09.960Z,0.22
2019-01-14T20:57:41.771Z,0.14
2019-01-14T21:00:18.876Z,0.15
2019-01-14T21:02:50.765Z,0.17
2019-01-14T21:05:24.958Z,0.11
2019-01-14T21:07:56.858Z,0.07
2019-01-14T21:13:07.821Z,0.11
2019-01-14T21:15:39.985Z,0.12
2019-01-14T21:18:11.806Z,0.11
2019-01-14T21:20:44.123Z,0.09
2019-01-14T21:23:15.970Z,0.03
2019-01-14T21:25:47.876Z,-0.06
2019-01-14T21:28:19.692Z,-0.01
2019-01-14T21:30:51.880Z,0.04
2019-01-14T21:33:23.920Z,-0.02
2019-01-14T21:35:55.958Z,0.06
2019-01-14T21:38:27.705Z,-0.01
2019-01-14T21:41:00.419Z,0.04
2019-01-14T21:43:32.254Z,0.03
2019-01-14T21:46:04.381Z,-0.05
2019-01-14T21:48:37.473Z,0.06
2019-01-14T21:51:09.404Z,0.06
2019-01-14T21:53:41.133Z,0.02
2019-01-14T21:56:12.898Z,0.08
2019-01-14T21:58:45.604Z,0.06
2019-01-14T22:01:17.422Z,0.04
2019-01-14T22:03:49.455Z,0.01
2019-01-14T22:06:21.264Z,-0.04
2019-01-14T22:08:52.993Z,-0.10
2019-01-14T22:11:24.917Z,-0.15
2019-01-14T22:13:56.910Z,-0.05
2019-01-14T22:16:28.953Z,-0.08
2019-01-14T22:19:00.831Z,-0.08
2019-01-14T22:21:32.586Z,-0.13
2019-01-14T22:24:04.406Z,-0.14
2019-01-14T22:26:36.164Z,-0.17
2019-01-14T22:29:08.226Z,-0.23
2019-01-14T22:31:40.225Z,-0.23
2019-01-14T22:34:12.044Z,-0.19
2019-01-14T22:36:44.040Z,-0.29
2019-01-14T22:39:15.849Z,-0.22
2019-01-14T22:41:47.730Z,-0.29
2019-01-14T22:44:19.554Z,-0.21
2019-01-14T22:46:51.607Z,-0.25
2019-01-14T22:49:23.339Z,-0.30
2019-01-14T22:51:55.166Z,-0.26
2019-01-14T22:54:26.933Z,-0.25
2019-01-14T22:56:58.719Z,-0.21
2019-01-14T22:59:30.483Z,-0.21
2019-01-14T23:02:02.377Z,-0.21
2019-01-14T23:04:34.447Z,-0.23
2019-01-14T23:07:06.337Z,-0.23
2019-01-14T23:09:38.134Z,-0.24
2019-01-14T23:12:10.276Z,-0.19
2019-01-14T23:14:42.099Z,-0.27
2019-01-14T23:17:13.910Z,-0.23
2019-01-14T23:19:45.770Z,-0.23
2019-01-14T23:22:17.655Z,-0.28
2019-01-14T23:24:50.523Z,-0.27
2019-01-14T23:27:22.384Z,-0.23
2019-01-14T23:29:54.111Z,-0.29
2019-01-14T23:32:26.176Z,-0.23
2019-01-14T23:34:57.989Z,-0.32
2019-01-14T23:37:29.888Z,-0.28
2019-01-14T23:40:01.632Z,-0.33
2019-01-14T23:42:33.622Z,-0.26
2019-01-14T23:45:05.993Z,-0.27
2019-01-14T23:47:37.893Z,-0.35
2019-01-14T23:50:10.518Z,-0.26
2019-01-14T23:52:42.257Z,-0.27
2019-01-14T23:55:14.070Z,-0.26
2019-01-14T23:57:45.831Z,-0.22
